Decoded Metar for PASL (SLEETMUTE in AK, USA) (IATA:SLQ) | Meteo·Mobile Aviation Weather
aviador You're here:

PASL Decoded Metar

SLEETMUTE in AK, USA
Report Time2018-12-15 13:30:00
UTC Time2018-12-15 13:55:33
Flight Rules vfr VFR
WindCalm
Visibility9999 m
Phenomena:N/A
Clouds:Scattered 002 Hf
Expected CloudBase > 1,200 ft AGL from Temp-Dew spread
CeilingNone
Temp-31°C (ISA -46)
Dew Point-34°C (75% RH)
AAT-34.9°C
QNH1001 hPa
Density Alt-5,397 ft
Elevation180 ft
Report Wrong Elevation
Raw Report
PASL 151330Z AUTO 00000KT 10SM SCT002 M31/M34 A2955 RMK AO2
SNE1259 P0000 FZRANO=

Extra information for PASL:More info

Metar Taf Metar & Taf Last 4 Metars F.Rules Stats Wind Profile Meteogram Temp Stats Airport Information Weather charts Add Link Nearby VenuesMetar ALERT Operation Metar Decoded Social comments

AIRNAV info for PASL